Ana Sayfa
METAR-TAF:

METAR-TAF

Havaalanları :

Limni, Yunanistan

Enlem: 39-55N, Boylam: 025-14E, yükseklik: 5 m

Güncel hava durumu gözlemi

Rapor saat 14:50 UTC de 31 dakika önce yapıldı.
Sakin rüzgar
Sıcaklık 17°C
Nem 27%
Basınç 1022 hPa
Görüş mesafesi 10 km veya daha fazla
2000 ft yükseklikte az bulutlu

METAR: LGLM 211450Z 00000KT 9999 FEW020 17/M02 Q1022

Saat: 18:21 (15:21 UTC)

Tahmin

Rapor saat 14:00 UTC de 1 saat ve 21 dakika önce yapıldı.
Ayın 21'si saat 15 UTC'den ayın 21'si saat 24 UTC'ye kadar geçerli Tahmin
Rüzgar kuzeydan 8 kt
Görüş mesafesi 10 km veya daha fazla
2000 ft yükseklikte az bulutlu

TAF: LGLM 211400Z 2115/2124 01008KT 9999 FEW020

4.000'den fazla havaalanı için hava durumu gözlemleri ve tahminleri (METAR ve TAF raporları).

Kullanılabilir istasyonlar harita üzerinde sarı ve kırmızı noktalarla gösterilir.

İstasyonun adını görmek için fareyi noktanın üzerinde gezdirin.

Sonrasında hava gözlem ve tahminlerini görmek için tıklayın.

Haritayı değiştirmek için: yaklaştırmak için siyah artı işaretli yeşil düğmeye ve uzaklaştırmak için de eksi işaretli düğmeye hızla tıklayın; bitişik haritalar için yeşil okları kullanın.


METAR-TAF: